createdAt,value
2022-08-05T00:02:33.797Z,22.73
2022-08-05T00:06:06.633Z,21.23
2022-08-05T00:09:01.472Z,30.07
2022-08-05T00:12:04.399Z,30.33
2022-08-05T00:15:54.141Z,23.17
2022-08-05T00:18:32.079Z,24.27
2022-08-05T00:21:35.871Z,24.83
2022-08-05T00:24:42.582Z,21.43
2022-08-05T00:27:45.370Z,24.47
2022-08-05T00:30:52.128Z,19.97
2022-08-05T00:34:54.486Z,21.47
2022-08-05T00:37:18.918Z,19.27
2022-08-05T00:40:29.252Z,15.97
2022-08-05T00:43:47.414Z,15.83
2022-08-05T00:46:54.153Z,19.87
2022-08-05T00:50:05.153Z,18.40
2022-08-05T00:53:16.040Z,18.87
2022-08-05T00:56:32.064Z,17.60
2022-08-05T00:59:44.237Z,12.60
2022-08-05T01:02:47.358Z,15.90
2022-08-05T01:05:54.749Z,13.93
2022-08-05T01:08:57.612Z,11.50
2022-08-05T01:12:18.052Z,10.60
2022-08-05T01:15:35.676Z,11.60
2022-08-05T01:18:43.377Z,9.50
2022-08-05T01:22:23.977Z,10.47
2022-08-05T01:25:54.490Z,9.80
2022-08-05T01:29:05.008Z,10.57
2022-08-05T01:32:18.435Z,9.30
2022-08-05T01:35:50.757Z,13.57
2022-08-05T01:38:51.333Z,7.03
2022-08-05T01:41:55.285Z,14.10
2022-08-05T01:45:03.213Z,13.30
2022-08-05T01:48:10.228Z,10.30
2022-08-05T01:51:15.622Z,9.67
2022-08-05T01:54:25.624Z,9.37
2022-08-05T01:58:29.791Z,9.17
2022-08-05T02:01:00.149Z,8.83
2022-08-05T02:04:04.393Z,9.00
2022-08-05T02:07:07.246Z,8.80
2022-08-05T02:10:17.257Z,7.10
2022-08-05T02:13:27.745Z,6.17
2022-08-05T02:16:46.737Z,8.53
2022-08-05T02:20:01.500Z,8.53
2022-08-05T02:23:10.022Z,7.50
2022-08-05T02:26:20.109Z,9.70
2022-08-05T02:29:59.496Z,7.03
2022-08-05T02:32:55.227Z,6.63
2022-08-05T02:36:01.469Z,11.30
2022-08-05T02:39:08.761Z,8.87
2022-08-05T02:42:12.400Z,7.80
2022-08-05T02:45:52.294Z,7.10
2022-08-05T02:48:58.464Z,10.47
2022-08-05T02:52:04.730Z,12.60
2022-08-05T02:55:10.957Z,7.03
2022-08-05T02:58:16.854Z,7.77
2022-08-05T03:01:27.023Z,13.23
2022-08-05T03:04:33.718Z,13.30
2022-08-05T03:08:00.486Z,8.27
2022-08-05T03:11:41.190Z,13.77
2022-08-05T03:14:22.999Z,10.07
2022-08-05T03:17:25.930Z,8.93
2022-08-05T03:20:31.101Z,5.37
2022-08-05T03:23:34.812Z,8.13
2022-08-05T03:26:37.915Z,5.70
2022-08-05T03:29:45.596Z,8.53
2022-08-05T03:33:05.797Z,5.93
2022-08-05T03:36:12.119Z,7.83
2022-08-05T03:39:26.755Z,7.30
2022-08-05T03:42:32.486Z,7.73
2022-08-05T03:45:58.037Z,5.67
2022-08-05T03:48:59.148Z,8.20
2022-08-05T03:52:39.070Z,7.37
2022-08-05T03:56:05.556Z,8.23
2022-08-05T03:59:03.170Z,8.73
2022-08-05T04:02:13.397Z,6.40
2022-08-05T04:05:20.859Z,6.63
2022-08-05T04:08:36.765Z,8.40
2022-08-05T04:11:50.757Z,6.67
2022-08-05T04:14:57.610Z,12.70
2022-08-05T04:18:02.883Z,5.70
2022-08-05T04:21:06.699Z,9.30
2022-08-05T04:24:19.195Z,7.53
2022-08-05T04:27:33.052Z,8.80
2022-08-05T04:30:44.569Z,6.53
2022-08-05T04:34:17.483Z,7.00
2022-08-05T04:37:10.273Z,8.07
2022-08-05T04:40:14.985Z,11.23
2022-08-05T04:43:22.354Z,6.53
2022-08-05T04:46:27.774Z,7.27
2022-08-05T04:49:39.105Z,5.33
2022-08-05T04:52:53.789Z,8.43
2022-08-05T04:56:14.403Z,9.63
2022-08-05T04:59:21.655Z,6.67
2022-08-05T05:02:43.266Z,8.27
2022-08-05T05:06:39.941Z,5.50
2022-08-05T05:09:09.847Z,7.53
2022-08-05T05:12:18.089Z,8.40
2022-08-05T05:15:57.003Z,6.23
2022-08-05T05:19:08.996Z,12.20
2022-08-05T05:22:24.396Z,11.00
2022-08-05T05:25:32.647Z,5.03
2022-08-05T05:28:45.012Z,11.43
2022-08-05T05:31:47.940Z,6.73
2022-08-05T05:34:52.319Z,6.00
2022-08-05T05:38:00.068Z,12.87
2022-08-05T05:41:04.014Z,5.90
2022-08-05T05:44:36.033Z,8.67
2022-08-05T05:48:07.197Z,7.07
2022-08-05T05:50:58.358Z,6.07
2022-08-05T05:54:00.938Z,5.07
2022-08-05T05:57:03.550Z,9.87
2022-08-05T06:00:19.982Z,7.70
2022-08-05T06:03:28.335Z,7.60
2022-08-05T06:06:47.774Z,13.13
2022-08-05T06:10:01.705Z,9.27
2022-08-05T06:13:07.227Z,5.63
2022-08-05T06:16:30.123Z,8.53
2022-08-05T06:19:35.671Z,6.70
2022-08-05T06:22:40.559Z,13.00
2022-08-05T06:26:12.281Z,8.13
2022-08-05T06:29:45.440Z,5.50
2022-08-05T06:32:31.734Z,6.93
2022-08-05T06:36:08.008Z,8.93
2022-08-05T06:38:56.986Z,9.00
2022-08-05T06:42:01.308Z,8.80
2022-08-05T06:45:08.492Z,5.97
2022-08-05T06:48:53.799Z,6.77
2022-08-05T06:51:35.622Z,8.93
2022-08-05T06:54:43.338Z,8.57
2022-08-05T06:58:03.259Z,9.07
2022-08-05T07:01:13.889Z,6.67
2022-08-05T07:04:24.836Z,9.47
2022-08-05T07:07:43.051Z,5.60
2022-08-05T07:10:53.496Z,5.97
2022-08-05T07:14:15.783Z,10.17
2022-08-05T07:18:07.459Z,6.67
2022-08-05T07:20:46.873Z,9.33
2022-08-05T07:23:52.180Z,7.97
2022-08-05T07:26:55.125Z,9.17
2022-08-05T07:30:23.851Z,7.83
2022-08-05T07:33:21.458Z,8.83
2022-08-05T07:36:41.387Z,7.93
2022-08-05T07:40:04.088Z,8.83
2022-08-05T07:43:20.336Z,6.03
2022-08-05T07:46:25.086Z,7.63
2022-08-05T07:49:28.706Z,6.97
2022-08-05T07:52:32.690Z,8.73
2022-08-05T07:56:04.835Z,8.30
2022-08-05T07:58:59.203Z,6.60
2022-08-05T08:02:03.230Z,9.33
2022-08-05T08:05:06.932Z,8.57
2022-08-05T08:08:12.188Z,7.80
2022-08-05T08:11:16.050Z,6.53
2022-08-05T08:14:19.155Z,6.83
2022-08-05T08:17:22.086Z,6.90
2022-08-05T08:21:00.567Z,9.83
2022-08-05T08:24:03.940Z,8.73
2022-08-05T08:27:07.995Z,7.77
2022-08-05T08:30:28.520Z,8.10
2022-08-05T08:33:36.014Z,10.77
2022-08-05T08:36:46.360Z,10.40
2022-08-05T08:39:56.638Z,6.20
2022-08-05T08:45:19.963Z,8.17
2022-08-05T08:46:24.978Z,8.63
2022-08-05T08:50:05.964Z,6.83
2022-08-05T08:52:55.867Z,5.40
2022-08-05T08:56:02.976Z,8.13
2022-08-05T08:59:19.267Z,5.83
2022-08-05T09:02:26.654Z,7.50
2022-08-05T09:05:38.297Z,8.90
2022-08-05T09:08:41.731Z,8.27
2022-08-05T09:11:50.910Z,8.67
2022-08-05T09:14:59.573Z,7.20
2022-08-05T09:18:09.326Z,7.90
2022-08-05T09:21:21.202Z,7.27
2022-08-05T09:24:34.643Z,6.57
2022-08-05T09:28:05.175Z,6.50
2022-08-05T09:31:22.481Z,8.63
2022-08-05T09:34:47.362Z,8.67
2022-08-05T09:38:12.174Z,5.63
2022-08-05T09:41:16.209Z,7.50
2022-08-05T09:44:34.359Z,6.63
2022-08-05T09:47:55.527Z,7.03
2022-08-05T09:51:00.443Z,9.50
2022-08-05T09:54:05.203Z,10.17
2022-08-05T09:57:20.663Z,10.20
2022-08-05T10:00:30.454Z,8.10
2022-08-05T10:03:56.786Z,5.63
2022-08-05T10:06:59.285Z,6.17
2022-08-05T10:10:14.228Z,4.90
2022-08-05T10:13:31.549Z,6.20
2022-08-05T10:16:52.736Z,4.97
2022-08-05T10:20:03.738Z,5.60
2022-08-05T10:23:34.253Z,5.27
2022-08-05T10:26:51.415Z,5.33
2022-08-05T10:30:41.842Z,4.97
2022-08-05T10:33:19.208Z,3.70
2022-08-05T10:36:23.767Z,4.63
2022-08-05T10:40:03.729Z,7.07
2022-08-05T10:43:02.236Z,3.60
2022-08-05T10:46:09.545Z,4.53
2022-08-05T10:49:16.349Z,4.70
2022-08-05T10:52:49.528Z,6.10
2022-08-05T10:56:14.670Z,3.17
2022-08-05T11:00:02.042Z,3.53
2022-08-05T11:03:25.859Z,4.17
2022-08-05T11:06:31.383Z,7.33
2022-08-05T11:09:46.721Z,3.40
2022-08-05T11:12:50.817Z,5.27
2022-08-05T11:16:47.750Z,5.37
2022-08-05T11:20:16.849Z,6.53
2022-08-05T11:24:05.287Z,8.03
2022-08-05T11:27:28.799Z,6.57
2022-08-05T11:31:58.825Z,7.37
2022-08-05T11:34:47.564Z,8.70
2022-08-05T11:38:26.206Z,4.87
2022-08-05T11:41:56.287Z,7.50
2022-08-05T11:44:53.803Z,6.50
2022-08-05T11:47:58.688Z,5.87
2022-08-05T11:51:02.629Z,6.97
2022-08-05T11:54:06.693Z,5.77
2022-08-05T11:57:24.511Z,11.60
2022-08-05T12:00:29.223Z,6.03
2022-08-05T12:03:43.229Z,6.53
2022-08-05T12:07:01.142Z,6.37
2022-08-05T12:10:09.532Z,6.50
2022-08-05T12:13:47.658Z,5.57
2022-08-05T12:16:45.291Z,5.03
2022-08-05T12:20:27.152Z,8.77
2022-08-05T12:23:14.015Z,9.63
2022-08-05T12:26:17.039Z,8.27
2022-08-05T12:29:23.802Z,7.40
2022-08-05T12:32:26.506Z,6.50
2022-08-05T12:35:36.886Z,6.37
2022-08-05T12:38:42.716Z,12.37
2022-08-05T12:41:46.873Z,5.83
2022-08-05T12:44:52.568Z,9.40
2022-08-05T12:48:17.611Z,5.83
2022-08-05T12:52:10.178Z,7.03
2022-08-05T12:54:42.049Z,7.17
2022-08-05T12:58:38.872Z,5.33
2022-08-05T13:02:01.734Z,3.63
2022-08-05T13:04:33.549Z,8.20
2022-08-05T13:08:02.036Z,6.57
2022-08-05T13:11:04.970Z,4.03
2022-08-05T13:14:19.375Z,3.20
2022-08-05T13:17:31.957Z,5.03
2022-08-05T13:20:44.233Z,4.43
2022-08-05T13:23:50.765Z,1.87
2022-08-05T13:26:55.080Z,4.40
2022-08-05T13:30:32.559Z,3.27
2022-08-05T13:34:22.573Z,2.53
2022-08-05T13:36:44.949Z,2.87
2022-08-05T13:40:16.107Z,3.80
2022-08-05T13:43:12.217Z,6.47
2022-08-05T13:46:16.296Z,5.32
2022-08-05T13:49:35.284Z,3.60
2022-08-05T13:52:38.034Z,5.32
2022-08-05T13:55:41.773Z,3.28
2022-08-05T13:58:53.276Z,2.85
2022-08-05T14:01:58.782Z,4.40
2022-08-05T14:05:15.372Z,6.25
2022-08-05T14:08:27.855Z,6.78
2022-08-05T14:11:31.388Z,4.60
2022-08-05T14:14:34.037Z,3.45
2022-08-05T14:17:37.701Z,7.53
2022-08-05T14:20:41.664Z,7.72
2022-08-05T14:23:50.013Z,4.20
2022-08-05T14:27:15.679Z,5.60
2022-08-05T14:30:20.363Z,3.42
2022-08-05T14:33:24.353Z,7.10
2022-08-05T14:36:28.420Z,6.45
2022-08-05T14:39:49.441Z,6.90
2022-08-05T14:42:55.538Z,4.85
2022-08-05T14:45:58.516Z,6.63
2022-08-05T14:49:06.467Z,5.50
2022-08-05T14:52:12.285Z,7.50
2022-08-05T14:55:24.695Z,5.88
2022-08-05T14:58:27.295Z,6.47
2022-08-05T15:01:49.163Z,5.18
2022-08-05T15:04:52.737Z,8.32
2022-08-05T15:08:13.201Z,4.97
2022-08-05T15:11:19.258Z,3.37
2022-08-05T15:14:35.659Z,7.15
2022-08-05T15:17:51.296Z,7.82
2022-08-05T15:20:54.678Z,5.10
2022-08-05T15:23:58.638Z,4.10
2022-08-05T15:27:01.233Z,5.57
2022-08-05T15:30:07.342Z,5.60
2022-08-05T15:33:09.924Z,4.97
2022-08-05T15:36:16.976Z,4.55
2022-08-05T15:41:00.646Z,6.43
2022-08-05T15:42:56.752Z,4.47
2022-08-05T15:46:01.239Z,4.63
2022-08-05T15:49:10.067Z,5.83
2022-08-05T15:52:29.474Z,5.53
2022-08-05T15:56:02.026Z,4.78
2022-08-05T15:59:00.532Z,4.93
2022-08-05T16:02:03.185Z,6.37
2022-08-05T16:05:12.824Z,4.37
2022-08-05T16:08:16.049Z,5.23
2022-08-05T16:11:20.912Z,5.43
2022-08-05T16:14:24.190Z,3.40
2022-08-05T16:17:26.777Z,3.67
2022-08-05T16:20:31.561Z,5.10
2022-08-05T16:23:54.131Z,5.00
2022-08-05T16:27:01.489Z,2.80
2022-08-05T16:30:05.595Z,5.53
2022-08-05T16:33:08.305Z,5.83
2022-08-05T16:36:11.343Z,5.23
2022-08-05T16:39:15.603Z,3.63
2022-08-05T16:42:27.375Z,4.17
2022-08-05T16:46:06.295Z,5.20
2022-08-05T16:48:53.532Z,3.57
2022-08-05T16:51:58.484Z,2.63
2022-08-05T16:55:01.604Z,2.03
2022-08-05T16:58:08.811Z,1.10
2022-08-05T17:01:12.756Z,3.23
2022-08-05T17:04:15.379Z,4.77
2022-08-05T17:07:43.532Z,5.47
2022-08-05T17:10:40.529Z,1.73
2022-08-05T17:13:44.718Z,3.17
2022-08-05T17:16:47.851Z,1.33
2022-08-05T17:19:56.678Z,3.83
2022-08-05T17:22:59.312Z,2.90
2022-08-05T17:26:02.545Z,1.73
2022-08-05T17:29:07.474Z,2.17
2022-08-05T17:32:16.725Z,3.43
2022-08-05T17:35:21.013Z,1.10
2022-08-05T17:38:23.750Z,2.40
2022-08-05T17:42:17.631Z,3.00
2022-08-05T17:44:51.408Z,1.30
2022-08-05T17:47:56.236Z,1.43
2022-08-05T17:50:59.002Z,6.33
2022-08-05T17:54:03.975Z,2.10
2022-08-05T17:57:07.078Z,3.27
2022-08-05T18:00:16.938Z,4.07
2022-08-05T18:06:42.927Z,3.10
2022-08-05T18:09:58.951Z,1.87
2022-08-05T18:13:07.618Z,4.23
2022-08-05T18:16:20.247Z,3.13
2022-08-05T18:19:26.054Z,3.33
2022-08-05T18:22:46.165Z,2.97
2022-08-05T18:25:57.463Z,6.10
2022-08-05T18:29:01.003Z,2.60
2022-08-05T18:32:06.501Z,4.83
2022-08-05T18:35:16.840Z,3.43
2022-08-05T18:38:26.380Z,3.63
2022-08-05T18:41:55.980Z,2.00
2022-08-05T18:44:56.474Z,4.20
2022-08-05T18:48:00.613Z,5.17
2022-08-05T18:52:04.583Z,6.43
2022-08-05T18:54:45.947Z,2.77
2022-08-05T18:57:53.126Z,1.00
2022-08-05T19:00:56.454Z,3.50
2022-08-05T19:04:00.471Z,2.43
2022-08-05T19:07:03.055Z,3.53
2022-08-05T19:10:11.111Z,1.60
2022-08-05T19:13:16.050Z,4.83
2022-08-05T19:16:25.173Z,1.27
2022-08-05T19:19:33.228Z,2.40
2022-08-05T19:22:36.701Z,1.83
2022-08-05T19:25:43.719Z,2.17
2022-08-05T19:28:47.040Z,2.47
2022-08-05T19:31:51.005Z,4.90
2022-08-05T19:34:55.882Z,5.80
2022-08-05T19:38:06.140Z,6.10
2022-08-05T19:41:10.107Z,3.67
2022-08-05T19:44:13.729Z,1.73
2022-08-05T19:47:17.209Z,1.27
2022-08-05T19:50:21.154Z,1.87
2022-08-05T19:54:04.042Z,1.23
2022-08-05T19:56:48.779Z,4.03
2022-08-05T19:59:59.370Z,2.73
2022-08-05T20:03:08.998Z,1.87
2022-08-05T20:06:15.855Z,2.50
2022-08-05T20:09:53.806Z,5.00
2022-08-05T20:12:55.003Z,3.43
2022-08-05T20:15:58.113Z,2.43
2022-08-05T20:19:02.289Z,3.40
2022-08-05T20:22:06.566Z,2.50
2022-08-05T20:25:12.420Z,5.10
2022-08-05T20:28:15.044Z,1.57
2022-08-05T20:31:21.593Z,4.43
2022-08-05T20:34:31.040Z,1.83
2022-08-05T20:38:06.227Z,2.23
2022-08-05T20:40:57.821Z,2.00
2022-08-05T20:44:16.917Z,2.90
2022-08-05T20:47:20.942Z,2.97
2022-08-05T20:50:36.251Z,1.90
2022-08-05T20:53:42.663Z,3.23
2022-08-05T20:56:59.222Z,2.47
2022-08-05T21:00:20.914Z,3.23
2022-08-05T21:03:24.446Z,2.43
2022-08-05T21:06:29.625Z,3.20
2022-08-05T21:09:33.815Z,3.00
2022-08-05T21:12:39.759Z,1.93
2022-08-05T21:16:01.083Z,1.80
2022-08-05T21:19:04.794Z,3.73
2022-08-05T21:22:09.539Z,3.20
2022-08-05T21:25:15.800Z,3.33
2022-08-05T21:28:23.675Z,1.87
2022-08-05T21:31:26.698Z,4.90
2022-08-05T21:34:43.574Z,4.07
2022-08-05T21:37:58.962Z,2.73
2022-08-05T21:41:02.953Z,2.97
2022-08-05T21:44:06.941Z,4.03
2022-08-05T21:47:32.785Z,2.83
2022-08-05T21:50:32.120Z,3.10
2022-08-05T21:53:34.802Z,4.00
2022-08-05T21:56:44.586Z,4.03
2022-08-05T22:00:04.859Z,3.83
2022-08-05T22:03:14.369Z,2.37
2022-08-05T22:06:22.190Z,2.73
2022-08-05T22:09:46.185Z,2.87
2022-08-05T22:12:50.678Z,4.67
2022-08-05T22:16:01.747Z,3.57
2022-08-05T22:19:57.064Z,1.80
2022-08-05T22:22:28.880Z,4.77
2022-08-05T22:26:09.702Z,2.53
2022-08-05T22:29:17.202Z,5.77
2022-08-05T22:32:21.380Z,2.80
2022-08-05T22:35:25.869Z,2.70
2022-08-05T22:38:33.791Z,3.07
2022-08-05T22:42:11.631Z,2.80
2022-08-05T22:45:03.672Z,5.33
2022-08-05T22:48:06.901Z,5.57
2022-08-05T22:51:15.976Z,6.37
2022-08-05T22:54:26.026Z,2.87
2022-08-05T22:57:36.227Z,3.73
2022-08-05T23:00:40.677Z,2.23
2022-08-05T23:03:58.100Z,2.77
2022-08-05T23:07:02.541Z,3.53
2022-08-05T23:10:06.613Z,6.63
2022-08-05T23:13:10.479Z,8.80
2022-08-05T23:16:14.452Z,2.57
2022-08-05T23:19:28.922Z,5.20
2022-08-05T23:22:41.053Z,2.73
2022-08-05T23:25:51.131Z,3.13
2022-08-05T23:28:57.718Z,2.27
2022-08-05T23:32:02.655Z,13.10
2022-08-05T23:35:07.097Z,3.57
2022-08-05T23:38:12.071Z,2.73
2022-08-05T23:41:14.796Z,3.73
2022-08-05T23:44:17.465Z,4.57
2022-08-05T23:47:25.003Z,3.07
2022-08-05T23:50:28.098Z,3.77
2022-08-05T23:53:46.911Z,3.53
2022-08-05T23:56:49.661Z,4.20
